Time;durP1;ratioP1;P1;durP2;ratioP2;P2;SDS_P1;SDS_P2;PMS_P1;PMS_P2;Temp;Humidity;BMP_temperature;BMP_pressure;BME280_temperature;BME280_humidity;BME280_pressure;Samples;Min_cycle;Max_cycle;Signal;HPM_P1;HPM_P2
2022/05/10 00:00:39;;;;;;;25.43;23.60;;;16.60;46.70;;;;;;4985400;28;20264;-82
2022/05/10 00:03:07;;;;;;;28.40;26.70;;;16.60;47.00;;;;;;4984336;28;20426;-82
2022/05/10 00:05:39;;;;;;;28.27;26.37;;;16.50;47.00;;;;;;4985300;28;20256;-82
2022/05/10 00:08:08;;;;;;;27.07;25.47;;;16.40;47.20;;;;;;4985870;28;20435;-82
2022/05/10 00:10:34;;;;;;;26.90;25.17;;;16.40;47.30;;;;;;4985175;28;20444;-82
2022/05/10 00:13:00;;;;;;;25.57;24.07;;;16.50;47.40;;;;;;4985453;28;20451;-86
2022/05/10 00:15:26;;;;;;;26.53;24.83;;;16.50;47.40;;;;;;4985932;28;20808;-86
2022/05/10 00:17:52;;;;;;;26.40;24.80;;;16.40;47.20;;;;;;5001955;28;20521;-87
2022/05/10 00:20:24;;;;;;;26.33;24.83;;;16.40;47.60;;;;;;4987568;28;20964;-87
2022/05/10 00:22:50;;;;;;;25.90;23.80;;;16.40;47.70;;;;;;5003361;28;20232;-87
2022/05/10 00:25:20;;;;;;;26.37;24.87;;;16.30;47.80;;;;;;4985980;28;20455;-87
2022/05/10 00:27:46;;;;;;;26.50;24.60;;;16.30;47.90;;;;;;4987513;28;20452;-87
2022/05/10 00:30:13;;;;;;;29.00;27.20;;;16.30;47.70;;;;;;4985594;28;20468;-87
2022/05/10 00:32:40;;;;;;;25.03;23.17;;;16.40;47.70;;;;;;4986016;28;20571;-86
2022/05/10 00:35:12;;;;;;;24.73;22.90;;;16.40;47.70;;;;;;4984992;28;20833;-86
2022/05/10 00:37:38;;;;;;;26.20;24.70;;;16.30;48.20;;;;;;4982715;28;20459;-86
2022/05/10 00:40:04;;;;;;;25.83;24.33;;;16.30;48.30;;;;;;4984625;28;20460;-86
2022/05/10 00:42:46;;;;;;;24.40;23.00;;;16.20;48.50;;;;;;4985408;28;20229;-86
2022/05/10 00:45:16;;;;;;;24.53;23.10;;;16.20;48.30;;;;;;4985573;28;20967;-86
2022/05/10 00:47:55;;;;;;;26.20;24.60;;;16.30;48.30;;;;;;4985096;28;20514;-85
2022/05/10 00:50:43;;;;;;;27.07;25.37;;;16.20;48.10;;;;;;4983005;28;21078;-85
2022/05/10 00:53:42;;;;;;;25.33;23.73;;;16.10;49.20;;;;;;4985511;28;20436;-86
2022/05/10 00:56:16;;;;;;;27.00;25.20;;;16.10;49.00;;;;;;4983174;28;20433;-85
2022/05/10 00:59:03;;;;;;;25.53;24.10;;;16.00;49.30;;;;;;4986870;28;20452;-86
2022/05/10 01:01:32;;;;;;;25.60;24.17;;;16.00;49.60;;;;;;4984994;28;20851;-86
2022/05/10 01:04:20;;;;;;;25.00;23.37;;;16.00;49.70;;;;;;4984813;28;20448;-86
2022/05/10 01:07:08;;;;;;;25.77;24.27;;;15.90;50.10;;;;;;4987270;28;20809;-86
2022/05/10 01:09:40;;;;;;;25.47;24.00;;;15.90;49.80;;;;;;4984807;28;20469;-86
2022/05/10 01:12:26;;;;;;;29.00;27.03;;;16.00;49.60;;;;;;4984313;28;20495;-86
2022/05/10 01:15:02;;;;;;;28.30;26.70;;;15.90;49.90;;;;;;4983359;28;20547;-86
2022/05/10 01:17:28;;;;;;;27.60;26.17;;;15.90;49.50;;;;;;4984597;28;20464;-86
2022/05/10 01:19:54;;;;;;;25.03;23.53;;;15.90;50.00;;;;;;4986752;28;20502;-86
2022/05/10 01:22:31;;;;;;;24.93;23.40;;;15.70;50.20;;;;;;4986842;28;20448;-86
2022/05/10 01:25:24;;;;;;;26.10;24.60;;;15.70;50.50;;;;;;4984512;28;20233;-86
2022/05/10 01:28:21;;;;;;;29.03;27.20;;;15.70;50.80;;;;;;4984428;28;20487;-86
2022/05/10 01:30:47;;;;;;;25.87;24.37;;;15.70;50.80;;;;;;4984126;28;20498;-86
2022/05/10 01:33:34;;;;;;;26.60;25.00;;;15.70;50.90;;;;;;4984107;28;20910;-86
2022/05/10 01:36:08;;;;;;;26.77;25.20;;;15.70;51.10;;;;;;4984206;28;20440;-86
2022/05/10 01:38:40;;;;;;;25.10;23.60;;;15.70;50.80;;;;;;4984463;28;20436;-86
2022/05/10 01:41:20;;;;;;;25.77;23.87;;;15.70;51.00;;;;;;4983323;28;20499;-85
2022/05/10 01:44:06;;;;;;;24.17;22.77;;;15.70;51.40;;;;;;4982634;28;20448;-86
2022/05/10 01:46:32;;;;;;;28.60;26.77;;;15.70;51.10;;;;;;4983883;28;20952;-86
2022/05/10 01:49:26;;;;;;;25.00;23.50;;;15.70;51.40;;;;;;4983792;28;20472;-86
2022/05/10 01:52:05;;;;;;;24.30;23.00;;;15.70;51.40;;;;;;4981749;28;20782;-86
2022/05/10 01:54:58;;;;;;;25.37;23.77;;;15.70;51.10;;;;;;4983125;28;20801;-86
2022/05/10 01:57:25;;;;;;;25.43;23.77;;;15.50;51.80;;;;;;4982912;28;20455;-85
2022/05/10 01:59:57;;;;;;;25.63;23.63;;;15.50;52.10;;;;;;4981682;28;20484;-86
2022/05/10 02:02:25;;;;;;;26.30;24.60;;;15.50;52.50;;;;;;4985461;28;20459;-87
2022/05/10 02:04:55;;;;;;;26.10;24.40;;;15.50;52.50;;;;;;4983572;28;20460;-86
2022/05/10 02:07:24;;;;;;;24.97;23.63;;;15.60;52.40;;;;;;4985746;28;20452;-86
2022/05/10 02:09:59;;;;;;;25.47;24.00;;;15.50;52.40;;;;;;4983526;28;21094;-87
2022/05/10 02:13:11;;;;;;;24.60;23.17;;;15.50;52.30;;;;;;4983240;28;20775;-86
2022/05/10 02:16:00;;;;;;;25.93;24.33;;;15.50;52.00;;;;;;4958236;28;20540;-86
2022/05/10 02:19:13;;;;;;;25.80;23.80;;;15.50;52.20;;;;;;4982435;28;20486;-86
2022/05/10 02:21:46;;;;;;;24.17;22.67;;;15.50;51.80;;;;;;4926306;28;20444;-86
2022/05/10 02:24:51;;;;;;;25.83;24.20;;;15.40;52.50;;;;;;4982804;28;20455;-86
2022/05/10 02:27:27;;;;;;;25.90;23.87;;;15.40;52.90;;;;;;4945596;28;20475;-86
2022/05/10 02:29:59;;;;;;;24.50;23.10;;;15.30;52.90;;;;;;4982009;28;20828;-86
2022/05/10 02:35:19;;;;;;;25.53;23.90;;;15.30;53.40;;;;;;4997720;28;21033;-88
2022/05/10 02:37:44;;;;;;;25.73;24.13;;;15.30;53.30;;;;;;4981700;28;20490;-84
2022/05/10 02:40:11;;;;;;;25.93;24.33;;;15.40;53.20;;;;;;4979461;28;20490;-85
2022/05/10 02:42:38;;;;;;;25.13;23.43;;;15.30;53.00;;;;;;4982735;28;20228;-85
2022/05/10 02:45:05;;;;;;;24.53;23.10;;;15.30;53.50;;;;;;4980108;28;20459;-85
2022/05/10 02:47:35;;;;;;;25.07;23.57;;;15.30;53.30;;;;;;4982047;28;20474;-85
2022/05/10 02:50:02;;;;;;;25.87;24.27;;;15.30;52.40;;;;;;4980059;28;20548;-85
2022/05/10 02:52:27;;;;;;;25.77;24.37;;;15.40;51.90;;;;;;4981591;28;20837;-86
2022/05/10 02:55:05;;;;;;;25.77;23.97;;;15.20;52.00;;;;;;4983276;28;20465;-85
2022/05/10 02:57:32;;;;;;;25.50;23.70;;;15.30;52.00;;;;;;4984797;28;20228;-84
2022/05/10 03:00:00;;;;;;;25.37;23.90;;;15.20;52.20;;;;;;4979372;28;20452;-85
2022/05/10 03:02:31;;;;;;;26.63;24.87;;;15.20;52.80;;;;;;4981614;28;20837;-84
2022/05/10 03:04:58;;;;;;;26.43;24.73;;;15.20;52.40;;;;;;4980374;28;20886;-85
2022/05/10 03:07:26;;;;;;;29.40;27.80;;;15.20;52.60;;;;;;4981192;28;20502;-84
2022/05/10 03:09:52;;;;;;;26.17;24.50;;;15.10;53.10;;;;;;4980167;28;20471;-85
2022/05/10 03:12:18;;;;;;;28.60;26.87;;;15.10;52.90;;;;;;4982952;28;20824;-85
2022/05/10 03:14:43;;;;;;;27.07;25.30;;;15.20;52.50;;;;;;4985679;28;20253;-84
2022/05/10 03:17:12;;;;;;;26.33;24.73;;;15.10;53.00;;;;;;4980660;28;20831;-84
2022/05/10 03:19:40;;;;;;;26.80;25.10;;;15.10;53.30;;;;;;4967436;28;20221;-85
2022/05/10 03:22:09;;;;;;;24.97;23.33;;;15.00;53.50;;;;;;5004357;28;20502;-85
2022/05/10 03:24:35;;;;;;;26.63;25.03;;;15.00;53.40;;;;;;4997686;28;21419;-84
2022/05/10 03:27:05;;;;;;;23.87;22.53;;;15.00;53.60;;;;;;5001571;28;20451;-84
2022/05/10 03:29:31;;;;;;;27.83;26.13;;;14.90;53.80;;;;;;5000810;28;20531;-84
2022/05/10 03:31:57;;;;;;;26.93;25.33;;;14.90;54.00;;;;;;5001913;28;20752;-85
2022/05/10 03:37:08;;;;;;;27.00;25.40;;;14.90;53.90;;;;;;5003785;28;20467;-85
2022/05/10 03:39:36;;;;;;;28.83;27.10;;;14.90;53.90;;;;;;5000763;28;20827;-84
2022/05/10 03:42:09;;;;;;;27.93;26.17;;;14.90;53.80;;;;;;4992628;28;20229;-84
2022/05/10 03:44:35;;;;;;;28.27;26.67;;;14.90;54.00;;;;;;4994743;28;20474;-84
2022/05/10 03:47:02;;;;;;;28.83;27.03;;;14.80;54.30;;;;;;5003124;28;20459;-86
2022/05/10 03:49:27;;;;;;;28.10;26.40;;;14.80;54.30;;;;;;5004968;28;20474;-85
2022/05/10 03:51:56;;;;;;;27.03;25.33;;;14.80;54.90;;;;;;5004160;28;20459;-83
2022/05/10 03:54:22;;;;;;;26.67;25.17;;;14.80;54.60;;;;;;4999921;28;20294;-83
2022/05/10 03:56:49;;;;;;;27.10;25.27;;;14.70;54.60;;;;;;5004191;28;20460;-84
2022/05/10 03:59:14;;;;;;;26.60;24.93;;;14.80;54.80;;;;;;5000434;28;20536;-84
2022/05/10 04:01:40;;;;;;;31.20;29.50;;;14.70;54.80;;;;;;5003956;28;20458;-84
2022/05/10 04:04:06;;;;;;;27.43;25.93;;;14.70;54.80;;;;;;5003721;28;20225;-85
2022/05/10 04:06:32;;;;;;;28.30;26.40;;;14.70;55.10;;;;;;5002190;28;20252;-84
2022/05/10 04:09:00;;;;;;;27.30;25.60;;;14.70;55.50;;;;;;4999615;28;20720;-83
2022/05/10 04:11:26;;;;;;;27.70;26.10;;;14.70;55.60;;;;;;5002351;28;20984;-81
2022/05/10 04:13:52;;;;;;;27.00;25.20;;;14.50;55.40;;;;;;4999716;28;20447;-84
2022/05/10 04:16:17;;;;;;;30.10;28.40;;;14.60;56.00;;;;;;5002665;28;20352;-84
2022/05/10 04:18:43;;;;;;;28.20;26.50;;;14.60;55.70;;;;;;5003371;28;20642;-83
2022/05/10 04:21:09;;;;;;;27.47;25.77;;;14.60;55.50;;;;;;5000471;28;20590;-85
2022/05/10 04:23:36;;;;;;;28.40;26.57;;;14.60;56.00;;;;;;5001141;28;20448;-84
2022/05/10 04:26:07;;;;;;;28.73;26.77;;;14.60;55.40;;;;;;4998827;28;20225;-82
2022/05/10 04:28:35;;;;;;;28.93;26.77;;;14.60;55.40;;;;;;5001944;28;20562;-80
2022/05/10 04:31:01;;;;;;;29.43;27.17;;;14.60;55.40;;;;;;5003205;28;20482;-82
2022/05/10 04:33:27;;;;;;;27.00;25.20;;;14.60;55.80;;;;;;5005559;28;20501;-81
2022/05/10 04:35:52;;;;;;;26.80;25.07;;;14.70;55.90;;;;;;5004398;28;20828;-81
2022/05/10 04:38:18;;;;;;;27.43;25.70;;;14.70;55.50;;;;;;5005322;28;20221;-84
2022/05/10 04:43:31;;;;;;;27.90;26.00;;;14.70;55.90;;;;;;5004562;28;20450;-85
2022/05/10 04:45:56;;;;;;;27.17;25.40;;;14.70;55.70;;;;;;5005704;28;20498;-83
2022/05/10 04:48:22;;;;;;;25.90;24.30;;;14.70;55.60;;;;;;4995629;28;20866;-87
2022/05/10 04:50:48;;;;;;;27.90;26.20;;;14.60;55.50;;;;;;5004223;28;20346;-87
2022/05/10 04:53:14;;;;;;;26.63;24.70;;;14.70;55.50;;;;;;5004478;28;20209;-87
2022/05/10 04:55:40;;;;;;;27.20;25.40;;;14.70;55.50;;;;;;5004940;28;20432;-90
2022/05/10 04:58:06;;;;;;;26.73;25.23;;;14.70;55.50;;;;;;5009426;28;20446;-84
2022/05/10 05:00:31;;;;;;;27.20;25.50;;;14.70;54.70;;;;;;5004335;28;21399;-81
2022/05/10 05:02:57;;;;;;;26.80;25.10;;;14.70;55.50;;;;;;5005211;28;20217;-82
2022/05/10 05:05:23;;;;;;;28.30;26.20;;;14.80;55.60;;;;;;4998859;28;20221;-83
2022/05/10 05:07:52;;;;;;;27.13;25.43;;;14.80;55.70;;;;;;5003385;28;20231;-84
2022/05/10 05:10:17;;;;;;;28.70;26.57;;;14.90;55.70;;;;;;4997116;28;20460;-83
2022/05/10 05:12:43;;;;;;;28.57;26.70;;;15.00;55.80;;;;;;5003120;28;20454;-87
2022/05/10 05:15:12;;;;;;;27.00;25.43;;;14.90;54.80;;;;;;5002457;28;20468;-86
2022/05/10 05:17:38;;;;;;;29.17;27.27;;;14.90;54.80;;;;;;4997552;28;20264;-82
2022/05/10 05:20:04;;;;;;;28.23;26.43;;;14.90;54.30;;;;;;4997908;28;20526;-84
2022/05/10 05:22:30;;;;;;;27.33;25.60;;;14.90;54.20;;;;;;4998959;28;20255;-83
2022/05/10 05:24:56;;;;;;;28.33;26.10;;;15.10;54.50;;;;;;4998872;28;20452;-83
2022/05/10 05:27:22;;;;;;;27.90;26.10;;;15.10;54.20;;;;;;4996725;28;20836;-82
2022/05/10 05:29:48;;;;;;;29.30;27.40;;;15.10;54.70;;;;;;4992898;28;20233;-82
2022/05/10 05:32:17;;;;;;;27.70;26.07;;;15.10;53.60;;;;;;4999906;28;20440;-82
2022/05/10 05:34:43;;;;;;;29.17;27.27;;;15.20;55.10;;;;;;5001208;28;20456;-85
2022/05/10 05:39:53;;;;;;;27.70;26.00;;;15.30;54.30;;;;;;5000608;28;20541;-85
2022/05/10 05:42:19;;;;;;;29.23;27.27;;;15.40;54.40;;;;;;4997756;28;20949;-84
2022/05/10 05:44:44;;;;;;;28.37;26.67;;;15.40;55.10;;;;;;4999160;28;20674;-89
2022/05/10 05:47:11;;;;;;;28.20;26.50;;;15.50;55.60;;;;;;4997752;28;20232;-86
2022/05/10 05:49:36;;;;;;;29.23;27.33;;;15.50;53.70;;;;;;4998811;28;20518;-84
2022/05/10 05:52:03;;;;;;;29.47;27.10;;;15.60;54.70;;;;;;4998328;28;20464;-84
2022/05/10 05:54:32;;;;;;;30.30;28.23;;;15.70;53.80;;;;;;4998052;28;20235;-84
2022/05/10 05:57:03;;;;;;;26.53;24.93;;;15.70;53.90;;;;;;4998255;28;20460;-85
2022/05/10 05:59:29;;;;;;;30.33;27.93;;;15.80;53.90;;;;;;4998072;28;20456;-85
2022/05/10 06:01:55;;;;;;;29.20;27.23;;;15.80;54.40;;;;;;4993841;28;20893;-85
2022/05/10 06:04:21;;;;;;;30.93;28.40;;;15.80;53.90;;;;;;4994516;28;21325;-85
2022/05/10 06:06:46;;;;;;;31.03;29.03;;;15.90;54.50;;;;;;4997300;28;20928;-85
2022/05/10 06:09:12;;;;;;;33.40;31.50;;;15.90;53.40;;;;;;4998476;28;20440;-85
2022/05/10 06:11:38;;;;;;;30.33;28.20;;;15.90;52.20;;;;;;4997949;28;20314;-85
2022/05/10 06:14:04;;;;;;;29.33;27.33;;;16.00;53.60;;;;;;4997257;28;20224;-85
2022/05/10 06:16:30;;;;;;;32.30;30.00;;;16.00;54.00;;;;;;4997838;28;20444;-85
2022/05/10 06:18:55;;;;;;;30.30;28.20;;;16.10;53.50;;;;;;4996094;28;20456;-85
2022/05/10 06:21:21;;;;;;;30.27;28.17;;;16.10;54.40;;;;;;4979458;28;20337;-85
2022/05/10 06:23:48;;;;;;;29.70;27.07;;;16.20;54.20;;;;;;4983287;28;20422;-85
2022/05/10 06:26:14;;;;;;;29.50;27.60;;;16.30;53.40;;;;;;4999453;28;20228;-84
2022/05/10 06:28:40;;;;;;;32.27;30.17;;;16.30;53.40;;;;;;4998066;28;20514;-85
2022/05/10 06:31:09;;;;;;;29.60;27.90;;;16.40;51.10;;;;;;4997730;28;20221;-85
2022/05/10 06:33:36;;;;;;;32.03;29.93;;;16.50;51.90;;;;;;4997614;28;20225;-84
2022/05/10 06:36:03;;;;;;;31.13;29.33;;;16.50;51.30;;;;;;4996510;28;20444;-84
2022/05/10 06:38:28;;;;;;;32.53;30.33;;;16.60;51.10;;;;;;4998213;28;20455;-85
2022/05/10 06:41:01;;;;;;;31.90;29.70;;;16.70;49.90;;;;;;4997239;28;20464;-85
2022/05/10 06:43:28;;;;;;;33.60;30.17;;;16.70;50.40;;;;;;4998043;28;20221;-84
2022/05/10 06:45:57;;;;;;;32.37;30.30;;;16.80;50.70;;;;;;4997998;28;20454;-85
2022/05/10 06:48:24;;;;;;;30.67;28.67;;;16.90;50.80;;;;;;4996353;28;20513;-85
2022/05/10 06:50:50;;;;;;;31.03;29.03;;;17.00;50.40;;;;;;4996907;28;20548;-85
2022/05/10 06:53:16;;;;;;;30.60;28.77;;;17.00;49.30;;;;;;4998634;28;20819;-85
2022/05/10 06:55:42;;;;;;;31.23;29.23;;;17.10;50.20;;;;;;4997831;28;20448;-85
2022/05/10 06:58:09;;;;;;;31.50;29.60;;;17.20;49.50;;;;;;4998476;28;20249;-83
2022/05/10 07:00:38;;;;;;;32.00;29.93;;;17.30;48.00;;;;;;4998861;28;20451;-83
2022/05/10 07:03:11;;;;;;;30.50;28.13;;;17.40;48.20;;;;;;4998752;28;20486;-83
2022/05/10 07:05:37;;;;;;;30.90;29.07;;;17.40;48.40;;;;;;4997420;28;20456;-84
2022/05/10 07:08:03;;;;;;;30.60;28.60;;;17.40;48.70;;;;;;4986008;28;20457;-85
2022/05/10 07:10:31;;;;;;;32.13;30.30;;;17.50;48.60;;;;;;4980308;28;20501;-84
2022/05/10 07:12:58;;;;;;;29.23;27.53;;;17.50;48.40;;;;;;4979913;28;20543;-84
2022/05/10 07:15:24;;;;;;;28.77;26.87;;;17.60;48.30;;;;;;5000274;28;20452;-84
2022/05/10 07:17:50;;;;;;;29.10;27.13;;;17.80;46.90;;;;;;4997871;28;20448;-84
2022/05/10 07:20:17;;;;;;;28.37;26.77;;;17.90;46.80;;;;;;4982455;28;20941;-84
2022/05/10 07:22:43;;;;;;;28.60;27.20;;;18.00;47.60;;;;;;4999662;28;20460;-84
2022/05/10 07:25:21;;;;;;;28.30;26.77;;;18.00;46.30;;;;;;4989570;28;20469;-84
2022/05/10 07:27:47;;;;;;;28.83;27.23;;;18.10;48.00;;;;;;4978362;28;21036;-84
2022/05/10 07:30:14;;;;;;;30.57;28.50;;;18.10;48.00;;;;;;4987498;28;20543;-84
2022/05/10 07:32:40;;;;;;;28.27;26.67;;;18.10;46.40;;;;;;4998516;28;20627;-84
2022/05/10 07:35:06;;;;;;;29.67;28.00;;;18.20;47.00;;;;;;4998691;28;20459;-83
2022/05/10 07:37:35;;;;;;;30.20;28.57;;;18.30;46.00;;;;;;4998962;28;20488;-81
2022/05/10 07:40:02;;;;;;;28.13;26.73;;;18.40;47.10;;;;;;4991852;28;20963;-81
2022/05/10 07:42:28;;;;;;;28.90;27.40;;;18.50;47.50;;;;;;4988011;28;20449;-81
2022/05/10 07:44:54;;;;;;;28.83;27.20;;;18.60;47.70;;;;;;4998433;28;20550;-82
2022/05/10 07:47:20;;;;;;;28.90;27.40;;;18.70;46.90;;;;;;4998508;28;20225;-81
2022/05/10 07:49:46;;;;;;;28.57;26.90;;;18.70;45.40;;;;;;4998428;28;20460;-81
2022/05/10 07:52:13;;;;;;;26.70;25.30;;;18.80;44.50;;;;;;4998705;28;20227;-80
2022/05/10 07:54:38;;;;;;;27.80;26.20;;;18.90;45.00;;;;;;4998393;28;20229;-81
2022/05/10 07:57:04;;;;;;;29.60;28.00;;;19.00;44.80;;;;;;4996958;28;21068;-81
2022/05/10 07:59:31;;;;;;;29.67;27.87;;;19.10;44.00;;;;;;5000915;28;20609;-82
2022/05/10 08:01:57;;;;;;;27.83;26.53;;;19.20;44.00;;;;;;5002110;28;20467;-81
2022/05/10 08:04:23;;;;;;;30.03;28.20;;;19.30;43.20;;;;;;5006027;28;20458;-81
2022/05/10 08:06:50;;;;;;;29.03;27.63;;;19.30;42.30;;;;;;5003212;28;20452;-82
2022/05/10 08:09:16;;;;;;;29.33;27.83;;;19.40;41.90;;;;;;5002856;28;20641;-82
2022/05/10 08:11:43;;;;;;;30.00;28.43;;;19.50;40.50;;;;;;5003643;28;20460;-82
2022/05/10 08:14:09;;;;;;;30.03;28.30;;;19.60;40.00;;;;;;5003311;28;20225;-82
2022/05/10 08:16:35;;;;;;;28.77;27.20;;;19.70;39.10;;;;;;5001545;28;20470;-82
2022/05/10 08:19:01;;;;;;;27.10;25.47;;;19.80;38.60;;;;;;5001751;28;20459;-82
2022/05/10 08:21:27;;;;;;;29.03;27.50;;;19.80;39.30;;;;;;5002293;28;20355;-81
2022/05/10 08:23:55;;;;;;;29.30;27.90;;;19.90;39.40;;;;;;5002119;28;20716;-81
2022/05/10 08:26:21;;;;;;;28.77;27.27;;;19.90;38.20;;;;;;5002328;28;20225;-82
2022/05/10 08:28:47;;;;;;;28.30;26.70;;;19.90;38.80;;;;;;5000906;28;20472;-82
2022/05/10 08:31:13;;;;;;;28.70;27.10;;;20.10;35.80;;;;;;4998634;28;20490;-81
2022/05/10 08:33:41;;;;;;;29.23;27.73;;;20.10;36.50;;;;;;5000680;28;21241;-81
2022/05/10 08:36:08;;;;;;;29.60;28.10;;;20.20;37.20;;;;;;5001045;28;20452;-82
2022/05/10 08:38:34;;;;;;;30.27;28.77;;;20.40;35.20;;;;;;5001684;28;20594;-81
2022/05/10 08:41:24;;;;;;;29.70;28.30;;;20.40;35.30;;;;;;5003521;28;20996;-82
2022/05/10 08:44:21;;;;;;;29.30;27.80;;;20.50;35.60;;;;;;5001170;28;20551;-85
2022/05/10 08:46:52;;;;;;;30.27;28.87;;;20.50;36.60;;;;;;4990071;28;20547;-85
2022/05/10 08:49:43;;;;;;;30.77;28.87;;;20.50;37.40;;;;;;5003114;28;20460;-84
2022/05/10 08:52:47;;;;;;;29.30;27.70;;;20.60;36.70;;;;;;5004068;28;20483;-85
2022/05/10 08:55:21;;;;;;;27.70;26.50;;;20.80;35.30;;;;;;4926001;29;21114;-84
2022/05/10 08:58:05;;;;;;;27.83;26.53;;;20.80;34.90;;;;;;4994151;28;20451;-84
2022/05/10 09:00:31;;;;;;;28.37;26.93;;;20.90;33.90;;;;;;5004480;28;20463;-85
2022/05/10 09:02:58;;;;;;;27.97;26.37;;;20.90;33.40;;;;;;5004298;28;20456;-86
2022/05/10 09:05:40;;;;;;;29.20;27.90;;;21.00;33.50;;;;;;5002275;28;20347;-85
2022/05/10 09:08:21;;;;;;;28.83;27.43;;;21.10;32.60;;;;;;5001828;28;21236;-85
2022/05/10 09:10:59;;;;;;;27.87;26.43;;;21.20;31.50;;;;;;5001979;28;20820;-85
2022/05/10 09:13:25;;;;;;;30.03;28.53;;;21.40;31.90;;;;;;5002035;28;20451;-84
2022/05/10 09:15:50;;;;;;;27.97;26.67;;;21.40;32.70;;;;;;5002369;28;20444;-84
2022/05/10 09:18:16;;;;;;;27.50;26.30;;;21.60;31.20;;;;;;5001103;28;20506;-84
2022/05/10 09:20:56;;;;;;;26.10;25.00;;;21.70;31.10;;;;;;5004548;28;20189;-85
2022/05/10 09:23:22;;;;;;;26.83;25.63;;;21.70;29.90;;;;;;5005286;28;20225;-85
2022/05/10 09:25:48;;;;;;;27.50;26.20;;;21.80;30.00;;;;;;5002143;28;20451;-85
2022/05/10 09:28:35;;;;;;;25.73;24.63;;;22.00;30.10;;;;;;5002736;28;20256;-85
2022/05/10 09:36:54;;;;;;;26.10;24.80;;;22.20;28.50;;;;;;5002639;28;20450;-82
2022/05/10 09:39:28;;;;;;;27.60;25.97;;;22.30;28.60;;;;;;5001916;28;20464;-84
2022/05/10 09:41:54;;;;;;;25.00;23.80;;;22.30;28.10;;;;;;5001403;28;20767;-84
2022/05/10 09:44:27;;;;;;;25.20;23.80;;;22.40;28.20;;;;;;5002072;28;20510;-85
2022/05/10 09:47:16;;;;;;;25.53;24.23;;;22.50;28.40;;;;;;5004287;28;20478;-84
2022/05/10 09:49:41;;;;;;;24.97;23.87;;;22.50;28.10;;;;;;5004872;28;20464;-84
2022/05/10 09:52:18;;;;;;;25.97;24.87;;;22.70;27.90;;;;;;5002828;28;20450;-84
2022/05/10 09:54:47;;;;;;;25.20;24.10;;;22.90;27.90;;;;;;5001493;28;20220;-81
2022/05/10 09:57:32;;;;;;;25.57;24.37;;;23.00;27.10;;;;;;5000815;28;20452;-84
2022/05/10 09:59:58;;;;;;;24.57;23.50;;;22.90;27.80;;;;;;5000409;28;20824;-81
2022/05/10 10:02:28;;;;;;;23.83;22.70;;;22.90;27.40;;;;;;4999664;28;20451;-81
2022/05/10 10:04:54;;;;;;;24.50;23.37;;;23.00;25.60;;;;;;4998441;28;20981;-84
2022/05/10 10:07:24;;;;;;;24.00;22.90;;;23.10;26.10;;;;;;5001885;28;20444;-84
2022/05/10 10:10:13;;;;;;;24.20;23.00;;;23.30;25.80;;;;;;5003903;28;20236;-84
2022/05/10 10:12:45;;;;;;;23.37;22.17;;;23.30;26.40;;;;;;5001775;28;20452;-84
2022/05/10 10:15:22;;;;;;;24.80;23.30;;;23.40;24.70;;;;;;5002676;28;20452;-84
2022/05/10 10:18:01;;;;;;;24.60;23.30;;;23.40;24.70;;;;;;4999178;28;21088;-84
2022/05/10 10:20:46;;;;;;;22.97;21.77;;;23.30;25.60;;;;;;5000877;28;20947;-84
2022/05/10 10:23:33;;;;;;;22.77;21.57;;;23.00;25.60;;;;;;5017986;28;20907;-84
2022/05/10 10:26:11;;;;;;;22.70;21.70;;;23.00;24.50;;;;;;4998332;28;20525;-84
2022/05/10 10:28:52;;;;;;;23.73;22.40;;;23.10;25.30;;;;;;5001145;28;20465;-85
2022/05/10 10:31:26;;;;;;;22.93;21.70;;;23.30;23.90;;;;;;4998716;28;20866;-85
2022/05/10 10:34:19;;;;;;;24.23;22.63;;;23.40;24.10;;;;;;4998602;28;20531;-85
2022/05/10 10:37:04;;;;;;;23.70;22.60;;;23.50;24.20;;;;;;4999358;28;20531;-85
2022/05/10 10:39:33;;;;;;;23.50;22.30;;;23.40;24.80;;;;;;4997186;28;20455;-85
2022/05/10 10:43:00;;;;;;;23.67;22.57;;;23.30;24.60;;;;;;4998562;28;20535;-85
2022/05/10 10:45:40;;;;;;;22.70;21.80;;;23.20;25.50;;;;;;4891554;29;21953;-84
2022/05/10 10:48:23;;;;;;;23.70;22.70;;;23.40;24.00;;;;;;4904688;29;20448;-84
2022/05/10 10:50:49;;;;;;;24.90;22.40;;;23.60;23.30;;;;;;4967976;28;20900;-84
2022/05/10 10:53:15;;;;;;;23.07;22.07;;;23.70;24.20;;;;;;4999043;28;20486;-85
2022/05/10 10:55:43;;;;;;;24.00;22.70;;;23.90;22.90;;;;;;4998159;28;20253;-86
2022/05/10 10:58:28;;;;;;;23.57;21.97;;;24.00;23.30;;;;;;4991134;28;20231;-85
2022/05/10 11:01:12;;;;;;;22.63;21.63;;;24.00;23.10;;;;;;4998200;28;20509;-86
2022/05/10 11:03:51;;;;;;;23.40;22.30;;;24.00;22.60;;;;;;4997321;28;20448;-88
2022/05/10 11:06:37;;;;;;;22.93;21.70;;;24.30;22.20;;;;;;4999173;28;20456;-87
2022/05/10 11:09:41;;;;;;;22.03;21.13;;;24.30;21.70;;;;;;4998916;28;20460;-87
2022/05/10 11:12:09;;;;;;;21.97;21.07;;;24.20;21.90;;;;;;4998463;28;20852;-87
2022/05/10 11:14:54;;;;;;;22.53;21.33;;;24.20;22.10;;;;;;5001357;28;20562;-88
2022/05/10 11:17:57;;;;;;;21.67;20.57;;;24.50;21.00;;;;;;5003069;28;20531;-82
2022/05/10 11:20:48;;;;;;;23.53;22.20;;;24.50;21.10;;;;;;4991819;28;20453;-83
2022/05/10 11:23:28;;;;;;;22.10;21.10;;;24.10;21.30;;;;;;4979029;28;20556;-83
2022/05/10 11:26:05;;;;;;;21.50;20.50;;;24.00;22.00;;;;;;4979696;28;20452;-83
2022/05/10 11:28:55;;;;;;;21.90;21.00;;;23.90;22.00;;;;;;4980505;28;20444;-83
2022/05/10 11:31:31;;;;;;;21.83;20.73;;;23.90;22.50;;;;;;4982676;28;20457;-88
2022/05/10 11:34:15;;;;;;;22.20;20.97;;;24.00;21.00;;;;;;4984258;28;20444;-83
2022/05/10 11:36:44;;;;;;;21.40;20.53;;;24.20;20.80;;;;;;4981857;28;20821;-83
2022/05/10 11:39:39;;;;;;;22.47;21.50;;;24.20;20.60;;;;;;4974846;28;20463;-83
2022/05/10 11:42:19;;;;;;;21.90;20.90;;;24.40;20.30;;;;;;4980255;28;20571;-83
2022/05/10 11:45:03;;;;;;;21.20;20.07;;;24.80;19.60;;;;;;4980828;28;20479;-83
2022/05/10 11:47:42;;;;;;;21.40;20.50;;;24.60;19.60;;;;;;4997849;28;20547;-83
2022/05/10 11:50:17;;;;;;;21.33;20.33;;;24.40;20.20;;;;;;4999855;28;20506;-84
2022/05/10 11:52:51;;;;;;;20.73;19.90;;;24.10;20.50;;;;;;5000457;28;20455;-84
2022/05/10 11:55:31;;;;;;;21.17;20.37;;;24.00;20.70;;;;;;4999055;28;20531;-83
2022/05/10 11:58:03;;;;;;;22.07;21.00;;;23.80;20.30;;;;;;5016773;28;20452;-83
2022/05/10 12:00:32;;;;;;;20.80;19.93;;;23.90;20.50;;;;;;5000524;28;20538;-83
2022/05/10 12:03:35;;;;;;;20.53;19.70;;;23.80;21.20;;;;;;5015495;28;20455;-84
2022/05/10 12:06:23;;;;;;;21.70;20.67;;;24.00;20.70;;;;;;5015539;28;20494;-83
2022/05/10 12:08:50;;;;;;;20.93;19.93;;;24.20;20.30;;;;;;5017168;28;20481;-84
2022/05/10 12:11:43;;;;;;;20.57;19.67;;;24.30;20.50;;;;;;5000767;28;20508;-84
2022/05/10 12:21:19;;;;;;;20.87;19.93;;;23.80;21.70;;;;;;4979708;28;20452;-84
2022/05/10 12:24:05;;;;;;;20.93;20.03;;;23.80;21.20;;;;;;4980854;28;20445;-84
2022/05/10 12:26:44;;;;;;;20.40;19.60;;;23.70;21.40;;;;;;4996299;28;20448;-84
2022/05/10 12:29:52;;;;;;;20.97;20.07;;;23.70;21.00;;;;;;4995258;28;20511;-84
2022/05/10 12:32:17;;;;;;;20.93;20.07;;;23.60;20.90;;;;;;4883166;29;20497;-84
2022/05/10 12:34:43;;;;;;;21.10;20.20;;;23.50;21.30;;;;;;4881417;29;20576;-84
2022/05/10 12:37:35;;;;;;;21.77;20.77;;;23.50;21.50;;;;;;4936285;28;20232;-84
2022/05/10 12:40:10;;;;;;;20.50;19.70;;;23.40;20.80;;;;;;4979368;28;20238;-84
2022/05/10 12:43:14;;;;;;;20.50;19.60;;;23.40;21.20;;;;;;4980067;28;20480;-84
2022/05/10 12:46:16;;;;;;;21.00;20.10;;;23.40;21.70;;;;;;4977428;28;20666;-84
2022/05/10 12:48:58;;;;;;;21.63;20.63;;;23.40;21.70;;;;;;4987473;28;21054;-84
2022/05/10 12:51:47;;;;;;;21.27;20.37;;;23.40;20.10;;;;;;4997961;28;20445;-84
2022/05/10 12:54:21;;;;;;;21.00;19.80;;;23.60;20.90;;;;;;5003007;28;20452;-89
2022/05/10 12:57:06;;;;;;;20.80;19.80;;;23.70;20.30;;;;;;5001713;28;20437;-89
2022/05/10 12:59:41;;;;;;;21.40;20.50;;;23.90;20.90;;;;;;5002947;28;20956;-89
2022/05/10 13:02:10;;;;;;;22.83;21.53;;;24.10;20.20;;;;;;5014655;28;20447;-89
2022/05/10 13:04:44;;;;;;;21.20;20.20;;;24.20;19.90;;;;;;4998243;28;20439;-90
2022/05/10 13:07:43;;;;;;;21.97;20.87;;;24.40;19.90;;;;;;4999945;28;20444;-89
2022/05/10 13:10:16;;;;;;;20.30;19.50;;;24.50;20.40;;;;;;4980877;28;20824;-90
2022/05/10 13:12:50;;;;;;;20.10;18.97;;;24.60;20.50;;;;;;4981773;28;20547;-90
2022/05/10 13:15:20;;;;;;;21.03;20.03;;;24.70;19.60;;;;;;4980994;28;20451;-89
2022/05/10 13:17:51;;;;;;;21.77;20.73;;;24.80;19.20;;;;;;4987012;28;20962;-89
2022/05/10 13:20:21;;;;;;;19.70;18.80;;;24.70;19.40;;;;;;4990400;28;20907;-89